Time;durP1;ratioP1;P1;durP2;ratioP2;P2;SDS_P1;SDS_P2;PMS_P1;PMS_P2;Temp;Humidity;BMP_temperature;BMP_pressure;BME280_temperature;BME280_humidity;BME280_pressure;Samples;Min_cycle;Max_cycle;Signal;HPM_P1;HPM_P2
2023/12/17 00:02:07;;;;;;;16.03;11.90;;;;;;;8.62;100.00;102797.72;5012026;28;20688;-81
2023/12/17 00:04:39;;;;;;;14.67;11.40;;;;;;;8.62;100.00;102794.19;5011460;28;20218;-80
2023/12/17 00:07:09;;;;;;;13.77;11.73;;;;;;;8.62;100.00;102796.84;5010981;28;20210;-83
2023/12/17 00:09:38;;;;;;;17.73;12.80;;;;;;;8.64;100.00;102800.34;5005245;28;20238;-79
2023/12/17 00:12:05;;;;;;;16.73;12.83;;;;;;;8.64;100.00;102798.56;5006762;28;20261;-80
2023/12/17 00:14:33;;;;;;;14.70;11.40;;;;;;;8.68;100.00;102797.59;5005444;28;20223;-80
2023/12/17 00:17:00;;;;;;;14.17;11.80;;;;;;;8.72;100.00;102797.53;5008703;28;20636;-80
2023/12/17 00:19:26;;;;;;;15.33;12.10;;;;;;;8.75;100.00;102789.50;5004218;28;20227;-80
2023/12/17 00:21:53;;;;;;;17.07;13.03;;;;;;;8.70;100.00;102786.94;5010339;28;20210;-79
2023/12/17 00:24:19;;;;;;;17.23;13.17;;;;;;;8.72;100.00;102787.78;5010786;28;20290;-81
2023/12/17 00:26:47;;;;;;;17.37;14.03;;;;;;;8.69;100.00;102788.72;5013056;28;20582;-81
2023/12/17 00:29:14;;;;;;;15.60;12.20;;;;;;;8.69;100.00;102794.03;5005280;28;20242;-79
2023/12/17 00:31:46;;;;;;;16.30;12.83;;;;;;;8.70;100.00;102806.41;5016087;28;20396;-79
2023/12/17 00:34:14;;;;;;;16.47;13.10;;;;;;;8.67;100.00;102795.84;5011281;28;20285;-81
2023/12/17 00:36:43;;;;;;;16.47;12.90;;;;;;;8.67;100.00;102798.50;5021160;28;20289;-81
2023/12/17 00:39:09;;;;;;;18.83;13.27;;;;;;;8.70;100.00;102794.91;5008593;28;20232;-81
2023/12/17 00:41:36;;;;;;;17.43;13.67;;;;;;;8.69;100.00;102790.50;5010372;28;20203;-82
2023/12/17 00:44:02;;;;;;;18.10;14.53;;;;;;;8.70;100.00;102786.94;5007677;28;20219;-81
2023/12/17 00:46:31;;;;;;;19.30;15.37;;;;;;;8.69;100.00;102788.72;5013750;28;20207;-80
2023/12/17 00:48:59;;;;;;;17.17;14.40;;;;;;;8.72;100.00;102779.81;5014366;28;20229;-80
2023/12/17 00:51:25;;;;;;;18.17;14.57;;;;;;;8.70;100.00;102786.94;5009095;28;20205;-81
2023/12/17 00:53:52;;;;;;;17.77;13.67;;;;;;;8.72;100.00;102785.13;5008047;28;20227;-80
2023/12/17 00:56:21;;;;;;;19.67;13.77;;;;;;;8.68;100.00;102792.28;5005562;28;20207;-81
2023/12/17 00:58:47;;;;;;;21.63;15.67;;;;;;;8.65;100.00;102802.97;5009369;28;20237;-81
2023/12/17 01:01:16;;;;;;;18.90;15.03;;;;;;;8.63;100.00;102803.91;5012585;28;20218;-81
2023/12/17 01:03:51;;;;;;;21.40;16.37;;;;;;;8.61;100.00;102798.63;5013504;28;20570;-80
2023/12/17 01:06:19;;;;;;;19.50;15.57;;;;;;;8.64;100.00;102787.06;5017054;28;20203;-79
2023/12/17 01:08:45;;;;;;;18.77;14.43;;;;;;;8.66;100.00;102795.88;5019260;28;20791;-80
2023/12/17 01:11:12;;;;;;;19.67;15.27;;;;;;;8.66;100.00;102801.19;5015624;28;20693;-79
2023/12/17 01:13:38;;;;;;;18.90;15.50;;;;;;;8.65;100.00;102799.44;5016010;28;20218;-79
2023/12/17 01:16:05;;;;;;;17.77;13.80;;;;;;;8.66;100.00;102790.56;5012934;28;20203;-80
2023/12/17 01:18:33;;;;;;;20.33;15.37;;;;;;;8.61;100.00;102792.44;5014234;28;21817;-80
2023/12/17 01:21:00;;;;;;;19.57;13.50;;;;;;;8.63;100.00;102793.28;5013094;28;20187;-80
2023/12/17 01:23:39;;;;;;;17.93;14.10;;;;;;;8.61;100.00;102800.41;5010847;28;20206;-80
2023/12/17 01:26:05;;;;;;;17.97;14.33;;;;;;;8.59;100.00;102795.16;5012919;28;20221;-81
2023/12/17 01:28:32;;;;;;;20.83;15.93;;;;;;;8.58;100.00;102792.50;5012646;28;20238;-79
2023/12/17 01:30:58;;;;;;;17.57;12.97;;;;;;;8.59;100.00;102795.16;5009715;28;20215;-80
2023/12/17 01:33:25;;;;;;;17.93;13.30;;;;;;;8.61;100.00;102797.75;5011187;28;20222;-81
2023/12/17 01:35:51;;;;;;;17.57;14.73;;;;;;;8.62;100.00;102794.19;5011180;28;20206;-81
2023/12/17 01:38:18;;;;;;;17.63;13.50;;;;;;;8.62;100.00;102791.53;5013898;28;20231;-80
2023/12/17 01:40:45;;;;;;;17.53;12.77;;;;;;;8.62;100.00;102794.19;5013348;28;20215;-81
2023/12/17 01:43:12;;;;;;;19.67;13.80;;;;;;;8.58;100.00;102792.50;5012656;28;20202;-80
2023/12/17 01:45:39;;;;;;;15.70;12.20;;;;;;;8.59;100.00;102795.16;5010446;28;20211;-81
2023/12/17 01:48:06;;;;;;;16.17;13.27;;;;;;;8.59;100.00;102797.81;5016557;28;20242;-78
2023/12/17 01:50:33;;;;;;;16.77;13.67;;;;;;;8.59;100.00;102800.47;5013591;28;20214;-80
2023/12/17 01:53:00;;;;;;;16.97;11.97;;;;;;;8.59;100.00;102799.56;5010421;28;20232;-80
2023/12/17 01:55:28;;;;;;;14.40;11.40;;;;;;;8.64;100.00;102785.28;5013973;28;20553;-80
2023/12/17 01:57:57;;;;;;;13.73;10.53;;;;;;;8.65;100.00;102800.31;5008201;28;20230;-81
2023/12/17 02:00:24;;;;;;;11.93;9.83;;;;;;;8.61;100.00;102793.31;5016126;28;20580;-80
2023/12/17 02:02:51;;;;;;;11.43;9.23;;;;;;;8.66;100.00;102790.56;5012687;28;20213;-80
2023/12/17 02:05:18;;;;;;;10.80;9.07;;;;;;;8.66;100.00;102793.22;5006153;28;20547;-79
2023/12/17 02:07:44;;;;;;;11.33;9.10;;;;;;;8.64;100.00;102789.72;5014208;22;20608;-72
2023/12/17 02:10:11;;;;;;;11.57;8.40;;;;;;;8.62;100.00;102791.53;5018268;28;20720;-75
2023/12/17 02:12:37;;;;;;;10.67;8.97;;;;;;;8.60;100.00;102783.59;5020535;28;20537;-74
2023/12/17 02:15:07;;;;;;;9.97;7.63;;;;;;;8.62;100.00;102783.56;5026941;28;20276;-71
2023/12/17 02:17:33;;;;;;;10.43;7.43;;;;;;;8.63;100.00;102790.63;5019426;28;20237;-74
2023/12/17 02:20:00;;;;;;;10.47;7.60;;;;;;;8.64;100.00;102790.59;5025845;28;20206;-74
2023/12/17 02:22:27;;;;;;;10.97;7.67;;;;;;;8.63;100.00;102783.53;5014808;28;20210;-73
2023/12/17 02:24:55;;;;;;;8.20;6.47;;;;;;;8.62;100.00;102787.09;5020007;28;20704;-72
2023/12/17 02:27:22;;;;;;;8.63;7.07;;;;;;;8.65;100.00;102780.84;5015651;28;20223;-74
2023/12/17 02:29:49;;;;;;;8.07;7.00;;;;;;;8.67;100.00;102781.69;5021109;28;20217;-73
2023/12/17 02:32:15;;;;;;;8.63;7.23;;;;;;;8.67;100.00;102776.38;5019555;28;20228;-73
2023/12/17 02:34:42;;;;;;;8.33;7.27;;;;;;;8.67;100.00;102771.06;5020879;28;20238;-71
2023/12/17 02:37:08;;;;;;;8.33;6.63;;;;;;;8.66;100.00;102778.16;5015878;28;20600;-74
2023/12/17 02:39:35;;;;;;;8.77;6.80;;;;;;;8.65;100.00;102780.84;5019945;28;20203;-74
2023/12/17 02:42:03;;;;;;;8.30;5.83;;;;;;;8.66;100.00;102787.91;5016449;28;20229;-73
2023/12/17 02:44:29;;;;;;;7.90;6.10;;;;;;;8.66;100.00;102777.28;5025356;28;20198;-74
2023/12/17 02:46:56;;;;;;;7.37;6.03;;;;;;;8.69;100.00;102790.50;5021985;28;20222;-72
2023/12/17 02:49:22;;;;;;;7.97;6.37;;;;;;;8.68;100.00;102778.13;5022689;28;20210;-74
2023/12/17 02:51:50;;;;;;;8.83;7.20;;;;;;;8.70;100.00;102773.66;5024939;28;20578;-73
2023/12/17 02:54:16;;;;;;;8.30;7.40;;;;;;;8.69;100.00;102775.44;5024714;28;20839;-74
2023/12/17 02:56:43;;;;;;;8.90;7.53;;;;;;;8.69;100.00;102775.44;5020446;28;20628;-73
2023/12/17 02:59:12;;;;;;;10.37;7.53;;;;;;;8.71;100.00;102767.44;5021081;28;20206;-74
2023/12/17 03:01:40;;;;;;;8.60;7.67;;;;;;;8.72;100.00;102771.84;5018782;28;20223;-74
2023/12/17 03:04:07;;;;;;;8.27;6.43;;;;;;;8.73;100.00;102767.41;5022257;28;20222;-73
2023/12/17 03:06:33;;;;;;;9.07;6.83;;;;;;;8.72;100.00;102777.16;5017491;28;20230;-74
2023/12/17 03:09:00;;;;;;;7.07;5.83;;;;;;;8.71;100.00;102775.41;5019704;28;20428;-74
2023/12/17 03:11:26;;;;;;;7.73;6.93;;;;;;;8.70;100.00;102768.34;5018241;28;20295;-74
2023/12/17 03:13:53;;;;;;;9.03;7.23;;;;;;;8.71;100.00;102759.47;5022451;28;20230;-70
2023/12/17 03:16:21;;;;;;;8.47;7.57;;;;;;;8.71;100.00;102764.78;5015717;28;20769;-71
2023/12/17 03:18:47;;;;;;;8.20;7.40;;;;;;;8.74;100.00;102762.06;5020746;28;20222;-74
2023/12/17 03:21:14;;;;;;;9.20;7.30;;;;;;;8.76;100.00;102754.06;5020719;28;20586;-74
2023/12/17 03:23:40;;;;;;;11.30;6.27;;;;;;;8.75;100.00;102755.84;5020453;28;20213;-74
2023/12/17 03:26:07;;;;;;;6.63;5.33;;;;;;;8.74;100.00;102762.06;5027417;28;20221;-74
2023/12/17 03:28:34;;;;;;;7.97;5.80;;;;;;;8.75;100.00;102766.47;5028154;28;20279;-72
2023/12/17 03:31:00;;;;;;;8.30;6.10;;;;;;;8.74;100.00;102764.72;5032262;28;20387;-73
2023/12/17 03:33:28;;;;;;;8.57;7.33;;;;;;;8.72;100.00;102750.59;5024030;28;20206;-73
2023/12/17 03:35:55;;;;;;;7.60;6.77;;;;;;;8.73;100.00;102754.13;5023606;28;20728;-70
2023/12/17 03:38:23;;;;;;;9.23;7.83;;;;;;;8.72;100.00;102763.88;5026851;28;20571;-72
2023/12/17 03:40:49;;;;;;;9.10;7.93;;;;;;;8.76;100.00;102746.97;5025045;28;20198;-72
2023/12/17 03:43:16;;;;;;;9.80;7.53;;;;;;;8.73;100.00;102760.31;5024876;28;20214;-73
2023/12/17 03:45:42;;;;;;;9.87;8.17;;;;;;;8.73;100.00;102762.97;5023624;28;20234;-72
2023/12/17 03:48:09;;;;;;;8.93;7.67;;;;;;;8.72;100.00;102763.88;5026863;28;20205;-73
2023/12/17 03:50:37;;;;;;;8.43;7.40;;;;;;;8.72;100.00;102747.94;5024928;28;20206;-72
2023/12/17 03:53:03;;;;;;;8.50;7.10;;;;;;;8.74;100.00;102734.63;5024030;28;20252;-72
2023/12/17 03:55:29;;;;;;;9.00;8.00;;;;;;;8.76;100.00;102733.69;5026620;28;20257;-72
2023/12/17 03:57:56;;;;;;;8.83;7.60;;;;;;;8.79;100.00;102736.25;5024312;28;20689;-72
2023/12/17 04:00:22;;;;;;;8.27;7.20;;;;;;;8.76;100.00;102723.06;5030245;28;20213;-73
2023/12/17 04:02:49;;;;;;;9.03;7.80;;;;;;;8.75;100.00;102721.31;5023974;28;20206;-72
2023/12/17 04:05:15;;;;;;;8.70;6.87;;;;;;;8.78;100.00;102717.69;5028619;28;20199;-73
2023/12/17 04:07:43;;;;;;;8.93;6.80;;;;;;;8.79;100.00;102722.94;5027588;28;20210;-73
2023/12/17 04:10:09;;;;;;;6.70;6.00;;;;;;;8.81;100.00;102713.16;5024271;28;20203;-73
2023/12/17 04:12:36;;;;;;;7.50;6.20;;;;;;;8.80;100.00;102707.88;5023091;28;20207;-71
2023/12/17 04:15:02;;;;;;;7.00;5.90;;;;;;;8.79;100.00;102709.66;5027875;28;20512;-72
2023/12/17 04:17:30;;;;;;;9.60;6.23;;;;;;;8.75;100.00;102705.34;5021696;28;20234;-70
2023/12/17 04:19:57;;;;;;;7.93;5.90;;;;;;;8.75;100.00;102699.16;5025547;28;20198;-72
2023/12/17 04:22:23;;;;;;;6.43;5.83;;;;;;;8.77;100.00;102695.56;5019989;28;20209;-73
2023/12/17 04:24:51;;;;;;;6.73;6.03;;;;;;;8.80;100.00;102700.78;5022370;28;20214;-73
2023/12/17 04:27:17;;;;;;;6.63;5.93;;;;;;;8.81;100.00;102713.16;5025018;28;20240;-73
2023/12/17 04:29:44;;;;;;;6.50;5.90;;;;;;;8.80;100.00;102705.22;5025883;28;20213;-73
2023/12/17 04:32:11;;;;;;;7.00;5.80;;;;;;;8.77;100.00;102698.22;5027919;28;20293;-73
2023/12/17 04:34:37;;;;;;;6.80;5.80;;;;;;;8.76;100.00;102707.09;5023611;28;20230;-73
2023/12/17 04:37:04;;;;;;;8.53;7.23;;;;;;;8.79;100.00;102699.03;5026830;28;20226;-72
2023/12/17 04:39:30;;;;;;;8.63;7.77;;;;;;;8.78;100.00;102705.25;5027920;28;20213;-73
2023/12/17 04:41:58;;;;;;;8.13;6.83;;;;;;;8.79;100.00;102687.53;5023675;28;20737;-72
2023/12/17 04:44:25;;;;;;;8.63;7.53;;;;;;;8.78;100.00;102686.66;5025538;28;20784;-72
2023/12/17 04:46:52;;;;;;;9.70;7.53;;;;;;;8.76;100.00;102691.16;5025621;28;20238;-72
2023/12/17 04:49:18;;;;;;;8.50;6.47;;;;;;;8.78;100.00;102691.13;5026378;28;20594;-74
2023/12/17 04:51:45;;;;;;;10.13;7.73;;;;;;;8.80;100.00;102683.97;5023278;28;20260;-75
2023/12/17 04:54:14;;;;;;;9.77;7.67;;;;;;;8.78;100.00;102693.78;5023847;28;20241;-73
2023/12/17 04:56:40;;;;;;;8.50;7.30;;;;;;;8.78;100.00;102697.28;5023989;28;20254;-74
2023/12/17 04:59:08;;;;;;;9.90;7.37;;;;;;;8.76;100.00;102696.47;5016426;28;20213;-74
2023/12/17 05:01:35;;;;;;;9.40;8.00;;;;;;;8.79;100.00;102698.16;5025724;28;20215;-73
2023/12/17 05:04:01;;;;;;;9.07;7.43;;;;;;;8.80;100.00;102692.81;5026216;28;20210;-73
2023/12/17 05:06:28;;;;;;;9.67;8.57;;;;;;;8.81;100.00;102689.25;5027462;28;20230;-73
2023/12/17 05:08:54;;;;;;;10.20;7.63;;;;;;;8.83;100.00;102692.75;5022942;28;20531;-73
2023/12/17 05:11:20;;;;;;;9.20;8.07;;;;;;;8.83;100.00;102692.75;5022549;28;20217;-73
2023/12/17 05:13:47;;;;;;;8.40;7.47;;;;;;;8.80;100.00;102691.94;5020420;28;20645;-73
2023/12/17 05:16:15;;;;;;;10.07;8.07;;;;;;;8.79;100.00;102698.16;5022392;28;20227;-73
2023/12/17 05:18:41;;;;;;;9.90;7.73;;;;;;;8.80;99.96;102687.50;5022851;28;20705;-74
2023/12/17 05:21:09;;;;;;;9.97;7.97;;;;;;;8.80;99.53;102707.88;5024524;28;20221;-72
2023/12/17 05:23:35;;;;;;;8.63;7.03;;;;;;;8.80;100.00;102708.75;5022389;28;20210;-73
2023/12/17 05:26:01;;;;;;;10.23;8.53;;;;;;;8.80;99.95;102711.41;5022419;28;20229;-72
2023/12/17 05:28:28;;;;;;;9.10;8.03;;;;;;;8.80;99.97;102721.16;5022233;28;20207;-73
2023/12/17 05:30:54;;;;;;;8.60;7.10;;;;;;;8.81;99.95;102717.59;5022810;28;20214;-74
2023/12/17 05:33:22;;;;;;;10.27;8.97;;;;;;;8.79;100.00;102719.41;5026475;28;20592;-73
2023/12/17 05:35:48;;;;;;;9.20;7.90;;;;;;;8.81;99.60;102718.47;5022925;28;20611;-74
2023/12/17 05:38:16;;;;;;;11.60;8.40;;;;;;;8.83;100.00;102714.00;5028003;28;20202;-76
2023/12/17 05:40:42;;;;;;;10.63;8.57;;;;;;;8.82;100.00;102717.56;5027875;28;20698;-71
2023/12/17 05:43:09;;;;;;;10.40;8.60;;;;;;;8.81;100.00;102718.47;5026673;28;20211;-73
2023/12/17 05:45:35;;;;;;;10.37;8.50;;;;;;;8.82;100.00;102706.94;5026516;28;20218;-72
2023/12/17 05:48:02;;;;;;;9.33;7.53;;;;;;;8.82;100.00;102703.41;5021767;28;20204;-72
2023/12/17 05:50:30;;;;;;;9.40;8.00;;;;;;;8.82;100.00;102700.75;5021138;28;20202;-73
2023/12/17 05:52:56;;;;;;;9.33;8.10;;;;;;;8.82;100.00;102698.97;5026394;28;20202;-72
2023/12/17 05:55:23;;;;;;;10.73;8.60;;;;;;;8.82;100.00;102706.06;5031239;28;20221;-73
2023/12/17 05:57:50;;;;;;;10.00;8.60;;;;;;;8.81;100.00;102699.88;5027980;28;20210;-73
2023/12/17 06:00:17;;;;;;;9.93;8.93;;;;;;;8.81;100.00;102704.31;5022434;28;20289;-73
2023/12/17 06:02:44;;;;;;;10.67;9.50;;;;;;;8.82;100.00;102704.28;5018334;28;20210;-74
2023/12/17 06:05:10;;;;;;;10.57;8.07;;;;;;;8.80;100.00;102700.78;5020962;28;20202;-75
2023/12/17 06:07:38;;;;;;;9.57;7.67;;;;;;;8.81;100.00;102696.34;5028114;28;20221;-73
2023/12/17 06:10:06;;;;;;;9.30;8.40;;;;;;;8.84;100.00;102701.59;5023527;28;20682;-73
2023/12/17 06:12:32;;;;;;;9.50;7.50;;;;;;;8.82;100.00;102687.47;5023253;28;20198;-75
2023/12/17 06:14:59;;;;;;;9.83;8.40;;;;;;;8.81;100.00;102686.59;5023318;28;20404;-75
2023/12/17 06:17:25;;;;;;;9.43;8.00;;;;;;;8.82;100.00;102706.94;5024999;28;20226;-73
2023/12/17 06:19:52;;;;;;;10.97;8.40;;;;;;;8.81;99.96;102699.00;5021205;28;20206;-73
2023/12/17 06:22:18;;;;;;;11.10;8.63;;;;;;;8.82;100.00;102716.69;5017431;28;20207;-73
2023/12/17 06:24:46;;;;;;;10.97;8.50;;;;;;;8.82;100.00;102709.59;5017475;28;20213;-73
2023/12/17 06:27:16;;;;;;;9.97;8.47;;;;;;;8.84;100.00;102709.56;5021701;28;20218;-74
2023/12/17 06:29:43;;;;;;;10.33;8.10;;;;;;;8.82;100.00;102708.72;5024598;28;20261;-73
2023/12/17 06:32:09;;;;;;;9.67;8.33;;;;;;;8.81;99.85;102699.88;5026159;28;20205;-73
2023/12/17 06:34:36;;;;;;;10.53;8.90;;;;;;;8.82;99.85;102698.09;5026494;28;20229;-73
2023/12/17 06:37:02;;;;;;;10.20;8.03;;;;;;;8.81;100.00;102694.56;5025299;28;20230;-73
2023/12/17 06:39:29;;;;;;;9.20;7.57;;;;;;;8.84;99.64;102698.94;5027413;28;20202;-73
2023/12/17 06:41:56;;;;;;;9.63;8.10;;;;;;;8.82;100.00;102698.97;5020975;28;20737;-74
2023/12/17 06:44:25;;;;;;;10.20;7.77;;;;;;;8.82;99.79;102709.59;5026332;28;20202;-73
2023/12/17 06:46:51;;;;;;;9.03;7.87;;;;;;;8.82;99.85;102716.69;5020915;28;20230;-73
2023/12/17 06:49:18;;;;;;;7.93;6.93;;;;;;;8.81;100.00;102714.94;5027672;28;20213;-74
2023/12/17 06:51:44;;;;;;;9.53;7.67;;;;;;;8.82;99.98;102712.25;5025211;28;20210;-73
2023/12/17 06:54:11;;;;;;;8.40;7.17;;;;;;;8.82;99.41;102711.38;5016770;28;20203;-74
2023/12/17 06:56:38;;;;;;;9.57;8.33;;;;;;;8.84;99.98;102707.78;5020610;28;20292;-74
2023/12/17 06:59:06;;;;;;;11.23;8.33;;;;;;;8.84;99.88;102705.13;5021897;28;20218;-73
2023/12/17 07:01:33;;;;;;;9.50;7.90;;;;;;;8.86;99.54;102698.00;5021853;28;20198;-74
2023/12/17 07:03:59;;;;;;;9.47;8.03;;;;;;;8.87;99.08;102705.06;5023122;28;20233;-74
2023/12/17 07:06:25;;;;;;;9.63;8.63;;;;;;;8.84;99.82;102714.88;5015819;28;20218;-74
2023/12/17 07:08:52;;;;;;;10.70;8.23;;;;;;;8.86;99.45;102721.03;5018778;28;20214;-72
2023/12/17 07:11:18;;;;;;;10.70;8.50;;;;;;;8.85;99.90;102720.16;5025101;28;20206;-73
2023/12/17 07:13:45;;;;;;;10.20;7.93;;;;;;;8.84;99.98;102723.72;5021346;28;20203;-73
2023/12/17 07:16:22;;;;;;;8.43;7.53;;;;;;;8.84;99.93;102718.41;5020376;28;20724;-71
2023/12/17 07:18:48;;;;;;;10.27;7.73;;;;;;;8.85;99.84;102713.97;5015607;28;20694;-73
2023/12/17 07:21:15;;;;;;;9.50;7.93;;;;;;;8.80;99.68;102714.06;5013932;28;20682;-73
2023/12/17 07:23:41;;;;;;;9.93;7.33;;;;;;;8.83;99.77;102706.03;5013009;28;20206;-73
2023/12/17 07:26:08;;;;;;;9.00;7.47;;;;;;;8.80;100.00;102713.19;5013754;28;20222;-73
2023/12/17 07:28:34;;;;;;;8.73;7.80;;;;;;;8.82;99.53;102700.75;5023414;28;20210;-74
2023/12/17 07:31:01;;;;;;;10.13;7.83;;;;;;;8.81;100.00;102704.31;5017332;28;20214;-74
2023/12/17 07:33:29;;;;;;;8.33;7.07;;;;;;;8.80;100.00;102722.03;5013719;28;20514;-73
2023/12/17 07:35:55;;;;;;;10.03;8.40;;;;;;;8.82;99.82;102729.97;5014963;28;20243;-74
2023/12/17 07:38:22;;;;;;;10.57;7.63;;;;;;;8.79;99.94;102736.25;5017629;28;20198;-72
2023/12/17 07:40:48;;;;;;;10.30;8.43;;;;;;;8.79;100.00;102733.59;5016145;28;20211;-73
2023/12/17 07:43:15;;;;;;;9.50;8.17;;;;;;;8.78;100.00;102729.19;5021712;28;20483;-74
2023/12/17 07:45:41;;;;;;;9.10;7.70;;;;;;;8.77;100.00;102730.13;5021134;28;20702;-73
2023/12/17 07:48:08;;;;;;;10.20;8.07;;;;;;;8.76;100.00;102728.38;5019360;28;20209;-72
2023/12/17 07:50:35;;;;;;;10.67;8.70;;;;;;;8.77;100.00;102727.47;5022069;28;20240;-74
2023/12/17 07:53:03;;;;;;;10.13;8.17;;;;;;;8.77;100.00;102727.47;5021169;28;20210;-74
2023/12/17 07:55:29;;;;;;;9.13;8.23;;;;;;;8.77;100.00;102724.81;5021559;28;20236;-74
2023/12/17 07:57:56;;;;;;;9.07;7.63;;;;;;;8.80;100.00;102716.72;5018439;28;20211;-73
2023/12/17 08:00:22;;;;;;;10.57;7.50;;;;;;;8.80;99.92;102718.50;5021081;28;20210;-74
2023/12/17 08:02:49;;;;;;;11.33;8.50;;;;;;;8.81;99.96;102715.81;5021657;28;20207;-73
2023/12/17 08:05:17;;;;;;;11.00;8.00;;;;;;;8.78;99.87;102721.19;5019668;28;20198;-73
2023/12/17 08:07:45;;;;;;;10.17;8.20;;;;;;;8.80;99.75;102719.38;5026743;28;20293;-73
2023/12/17 08:10:11;;;;;;;9.43;7.77;;;;;;;8.78;100.00;102720.38;5037932;23;20234;-83
2023/12/17 08:12:38;;;;;;;10.53;8.00;;;;;;;8.83;100.00;102719.31;5035375;28;20202;-81
2023/12/17 08:15:05;;;;;;;10.00;7.57;;;;;;;8.80;100.00;102719.38;5036525;28;20619;-82
2023/12/17 08:17:32;;;;;;;9.97;8.13;;;;;;;8.80;100.00;102719.38;5039437;28;20202;-82
2023/12/17 08:19:58;;;;;;;9.90;8.33;;;;;;;8.78;99.99;102726.50;5017658;28;20230;-82
2023/12/17 08:22:25;;;;;;;9.13;8.03;;;;;;;8.81;100.00;102725.56;5014601;28;20203;-80
2023/12/17 08:24:53;;;;;;;11.17;9.10;;;;;;;8.85;99.84;102719.28;5015241;28;20214;-81
2023/12/17 08:27:19;;;;;;;7.90;6.93;;;;;;;8.84;99.67;102726.38;5015514;28;20207;-80
2023/12/17 08:29:47;;;;;;;8.53;7.30;;;;;;;8.83;99.79;102735.25;5009849;28;20231;-82
2023/12/17 08:32:14;;;;;;;9.07;7.63;;;;;;;8.82;99.66;102737.94;5012609;28;20261;-80
2023/12/17 08:34:41;;;;;;;9.73;7.53;;;;;;;8.85;99.97;102729.91;5016048;28;20258;-80
2023/12/17 08:37:07;;;;;;;8.77;7.53;;;;;;;8.86;99.13;102732.53;5015429;28;20218;-80
2023/12/17 08:39:34;;;;;;;10.73;7.53;;;;;;;8.88;98.74;102741.34;5016535;28;20242;-81
2023/12/17 08:42:02;;;;;;;9.93;8.50;;;;;;;8.90;99.09;102742.19;5016446;28;20207;-81
2023/12/17 08:44:28;;;;;;;9.63;7.57;;;;;;;8.89;99.22;102743.09;5019275;28;20211;-80
2023/12/17 08:46:55;;;;;;;9.20;7.80;;;;;;;8.86;99.20;102744.94;5015501;28;20218;-83
2023/12/17 08:49:21;;;;;;;9.97;7.70;;;;;;;8.88;98.90;102736.03;5017791;28;20231;-81
2023/12/17 08:51:48;;;;;;;10.07;7.63;;;;;;;8.92;98.66;102735.06;5021463;28;20207;-81
2023/12/17 08:54:15;;;;;;;9.13;7.43;;;;;;;8.91;98.36;102746.59;5020815;28;20667;-81
2023/12/17 08:56:41;;;;;;;10.03;7.90;;;;;;;8.88;97.89;102748.44;5019292;28;20350;-82
2023/12/17 08:59:09;;;;;;;11.33;7.93;;;;;;;8.88;98.19;102743.13;5007859;28;20236;-82
2023/12/17 09:01:36;;;;;;;9.57;8.20;;;;;;;8.88;97.85;102746.66;5016295;28;20214;-83
2023/12/17 09:04:03;;;;;;;12.60;8.83;;;;;;;8.92;97.31;102750.13;5018787;28;20234;-81
2023/12/17 09:06:29;;;;;;;9.47;7.90;;;;;;;8.88;97.02;102746.66;5013635;28;20225;-80
2023/12/17 09:08:56;;;;;;;10.33;7.83;;;;;;;8.87;97.21;102742.25;5015850;28;20230;-81
2023/12/17 09:11:22;;;;;;;10.40;6.87;;;;;;;8.91;96.41;102737.75;5014966;28;20218;-81
2023/12/17 09:13:49;;;;;;;8.57;7.07;;;;;;;8.91;96.60;102733.31;5013456;28;20241;-78
2023/12/17 09:16:17;;;;;;;11.30;7.83;;;;;;;8.89;96.51;102745.75;5017695;28;20223;-79
2023/12/17 09:18:49;;;;;;;9.60;8.03;;;;;;;8.92;96.20;102734.19;5010746;28;20231;-79
2023/12/17 09:21:15;;;;;;;7.67;6.37;;;;;;;8.91;95.84;102735.97;5017071;28;20215;-78
2023/12/17 09:23:44;;;;;;;7.87;6.70;;;;;;;8.96;94.95;102742.03;5019845;28;20219;-78
2023/12/17 09:26:11;;;;;;;9.17;6.90;;;;;;;8.99;95.09;102719.84;5028724;28;20202;-78
2023/12/17 09:28:37;;;;;;;7.93;6.50;;;;;;;9.04;95.30;102729.44;5028996;28;20230;-78
2023/12/17 09:31:08;;;;;;;8.00;6.47;;;;;;;9.09;95.29;102723.16;5033801;28;20214;-77
2023/12/17 09:33:36;;;;;;;7.53;6.00;;;;;;;9.15;94.74;102717.66;5017841;28;20658;-79
2023/12/17 09:36:03;;;;;;;7.63;6.27;;;;;;;9.19;93.88;102717.56;5014294;28;20231;-79
2023/12/17 09:38:29;;;;;;;6.73;5.87;;;;;;;9.22;92.59;102720.16;5014719;28;20231;-78
2023/12/17 09:40:55;;;;;;;6.30;5.40;;;;;;;9.23;91.98;102708.63;5006730;28;20204;-78
2023/12/17 09:43:24;;;;;;;7.07;5.60;;;;;;;9.25;91.78;102684.66;5004815;28;20678;-78
2023/12/17 09:45:52;;;;;;;5.83;5.23;;;;;;;9.28;91.94;102689.91;5013792;28;20230;-79
2023/12/17 09:48:18;;;;;;;7.23;5.93;;;;;;;9.31;92.17;102695.13;5020600;28;20695;-79
2023/12/17 09:50:46;;;;;;;6.83;5.90;;;;;;;9.34;92.00;102679.06;5025225;28;20202;-77
2023/12/17 09:53:13;;;;;;;6.30;5.60;;;;;;;9.34;91.44;102676.41;5023686;28;20654;-78
2023/12/17 09:55:40;;;;;;;7.10;5.87;;;;;;;9.33;91.28;102674.66;5034117;28;20226;-78
2023/12/17 09:58:07;;;;;;;7.27;5.57;;;;;;;9.34;90.48;102679.06;5017175;28;20234;-79
2023/12/17 10:00:34;;;;;;;6.80;4.93;;;;;;;9.34;90.62;102669.31;5014239;28;20204;-78
2023/12/17 10:03:04;;;;;;;6.10;4.30;;;;;;;9.35;89.95;102670.19;5017739;28;20215;-79
2023/12/17 10:05:32;;;;;;;5.80;4.50;;;;;;;9.33;90.24;102672.88;4996644;28;20259;-77
2023/12/17 10:08:00;;;;;;;5.13;4.30;;;;;;;9.34;89.83;102665.78;5007900;28;20215;-79
2023/12/17 10:10:26;;;;;;;5.50;4.50;;;;;;;9.34;90.24;102665.78;5028038;28;20659;-79
2023/12/17 10:12:53;;;;;;;4.70;4.00;;;;;;;9.30;90.41;102662.34;5019125;28;20685;-78
2023/12/17 10:15:20;;;;;;;6.13;4.10;;;;;;;9.27;91.13;102651.78;5029231;28;20221;-77
2023/12/17 10:17:47;;;;;;;5.97;4.47;;;;;;;9.25;90.47;102655.41;5017255;28;20214;-80
2023/12/17 10:20:18;;;;;;;5.37;3.97;;;;;;;9.22;90.39;102655.47;5017956;28;20214;-78
2023/12/17 10:23:00;;;;;;;4.03;2.97;;;;;;;9.16;90.45;102650.31;5032532;28;20289;-78
2023/12/17 10:25:27;;;;;;;4.57;3.73;;;;;;;9.13;90.44;102655.72;5038686;28;20704;-78
2023/12/17 10:27:57;;;;;;;4.43;3.63;;;;;;;9.13;89.41;102653.06;5037824;28;20213;-78
2023/12/17 10:30:27;;;;;;;4.90;3.60;;;;;;;9.14;89.76;102660.09;5038664;28;20210;-78
2023/12/17 10:32:54;;;;;;;4.40;3.60;;;;;;;9.14;90.04;102660.97;5035228;28;20182;-77
2023/12/17 10:35:23;;;;;;;3.97;3.57;;;;;;;9.15;90.40;102659.19;5034210;28;20199;-78
2023/12/17 10:37:52;;;;;;;3.90;3.50;;;;;;;9.13;90.83;102653.06;5037189;28;20265;-79
2023/12/17 10:40:25;;;;;;;3.83;2.90;;;;;;;9.19;90.68;102650.22;5039244;28;20248;-79
2023/12/17 10:42:54;;;;;;;4.83;3.47;;;;;;;9.23;90.57;102649.25;5038946;28;20201;-78
2023/12/17 10:45:21;;;;;;;4.03;3.63;;;;;;;9.26;90.71;102643.84;5037543;28;20206;-78
2023/12/17 10:47:52;;;;;;;3.77;3.10;;;;;;;9.28;89.99;102642.91;5035459;28;20209;-80
2023/12/17 10:50:19;;;;;;;3.40;2.93;;;;;;;9.32;89.77;102641.00;5037909;28;20605;-79
2023/12/17 10:52:47;;;;;;;4.33;3.07;;;;;;;9.36;90.15;102637.38;5039168;28;20218;-80
2023/12/17 10:55:14;;;;;;;5.80;4.33;;;;;;;9.40;89.27;102642.56;5037903;28;20214;-78
2023/12/17 10:57:45;;;;;;;5.57;4.40;;;;;;;9.44;88.37;102635.38;5036423;28;20237;-80
2023/12/17 11:00:15;;;;;;;2.40;2.20;;;;;;;9.47;87.70;102637.97;5021617;28;20195;-78
2023/12/17 11:02:43;;;;;;;3.17;2.87;;;;;;;9.43;88.18;102625.66;5009410;28;20299;-82
2023/12/17 11:05:09;;;;;;;2.70;2.30;;;;;;;9.47;87.52;102632.66;5008688;28;20211;-82
2023/12/17 11:07:36;;;;;;;3.40;3.10;;;;;;;9.42;88.07;102631.91;5002591;28;20215;-82
2023/12/17 11:10:02;;;;;;;3.13;2.40;;;;;;;9.43;87.25;102630.97;5010340;28;20250;-81
2023/12/17 11:12:28;;;;;;;3.03;2.60;;;;;;;9.40;86.65;102628.41;5008689;28;20242;-82
2023/12/17 11:14:59;;;;;;;2.93;2.60;;;;;;;9.36;86.69;102630.25;5006102;28;20290;-81
2023/12/17 11:17:27;;;;;;;2.47;2.27;;;;;;;9.39;86.71;102629.31;5004319;28;20230;-82
2023/12/17 11:19:56;;;;;;;3.23;2.37;;;;;;;9.40;86.36;102626.63;5012452;28;20231;-82
2023/12/17 11:22:26;;;;;;;2.77;2.37;;;;;;;9.38;86.85;102623.13;5005567;28;20581;-84
2023/12/17 11:24:55;;;;;;;4.03;3.67;;;;;;;9.38;87.13;102628.44;5005666;28;20691;-81